Les Mechins, Canada
Current Conditions -  °F | °C
As of 10:44 PM on Saturday 22 Nov 2014 (Local Time) from CYBC Reporting Station
Overcast Overcast  
Wind Chill: 18°   Ceiling: 7500
Heat Index: 30°   Visibility: 9mi
Dew Point: 27°   Wind: 18mph
Humidity: 86%   Direction: 250°WSW
Pressure: 29.63"   Gusts: 24mph
Location:  48.98°N, 66.98°W
Report Text: CYBC 230344Z AUTO 25016G21KT 9SM OVC075 M01/M03 A2963 RMK SLP035
Loading
Personal Weather Stations






























Interactive Weather Map New forecast layout! Learn more

10-Day Weather Forecast

Advertisements
Track Severe Weather on mobile